Home > Products > Valid Products > TAF

000
FTUS43 KARX 311613 AAA
TAFRST
TAF AMD
KRST 311613Z 3116/0112 33012KT P6SM SKC
     FM311800 31014G22KT P6SM SKC
     FM010000 31006KT P6SM SKC
     FM010600 15008KT P6SM SKC=



000
FTUS43 KARX 311613 AAA
TAFRST
TAF AMD
KRST 311613Z 3116/0112 33012KT P6SM SKC
     FM311800 31014G22KT P6SM SKC
     FM010000 31006KT P6SM SKC
     FM010600 15008KT P6SM SKC=



000
FTUS43 KARX 311613 AAA
TAFRST
TAF AMD
KRST 311613Z 3116/0112 33012KT P6SM SKC
     FM311800 31014G22KT P6SM SKC
     FM010000 31006KT P6SM SKC
     FM010600 15008KT P6SM SKC=



000
FTUS43 KARX 311613 AAA
TAFRST
TAF AMD
KRST 311613Z 3116/0112 33012KT P6SM SKC
     FM311800 31014G22KT P6SM SKC
     FM010000 31006KT P6SM SKC
     FM010600 15008KT P6SM SKC=



000
FTUS43 KARX 311611 AAB
TAFLSE
TAF AMD
KLSE 311611Z 3116/0112 VRB03KT P6SM BKN003
     FM311645 30008KT P6SM SKC
     FM311800 30013G20KT P6SM SKC
     FM010000 VRB03KT P6SM SKC
     FM010600 13005KT P6SM SKC=



000
FTUS43 KARX 311611 AAB
TAFLSE
TAF AMD
KLSE 311611Z 3116/0112 VRB03KT P6SM BKN003
     FM311645 30008KT P6SM SKC
     FM311800 30013G20KT P6SM SKC
     FM010000 VRB03KT P6SM SKC
     FM010600 13005KT P6SM SKC=



000
FTUS43 KARX 311611 AAB
TAFLSE
TAF AMD
KLSE 311611Z 3116/0112 VRB03KT P6SM BKN003
     FM311645 30008KT P6SM SKC
     FM311800 30013G20KT P6SM SKC
     FM010000 VRB03KT P6SM SKC
     FM010600 13005KT P6SM SKC=



000
FTUS43 KARX 311611 AAB
TAFLSE
TAF AMD
KLSE 311611Z 3116/0112 VRB03KT P6SM BKN003
     FM311645 30008KT P6SM SKC
     FM311800 30013G20KT P6SM SKC
     FM010000 VRB03KT P6SM SKC
     FM010600 13005KT P6SM SKC=



000
FTUS43 KARX 311503 AAA
TAFLSE
TAF AMD
KLSE 311503Z 3115/0112 VRB03KT 1/2SM FG BKN002
     FM311530 30005KT P6SM SKC
     FM311800 30013G20KT P6SM SKC
     FM010000 VRB03KT P6SM SKC
     FM010600 13005KT P6SM SKC=



000
FTUS43 KARX 311503 AAA
TAFLSE
TAF AMD
KLSE 311503Z 3115/0112 VRB03KT 1/2SM FG BKN002
     FM311530 30005KT P6SM SKC
     FM311800 30013G20KT P6SM SKC
     FM010000 VRB03KT P6SM SKC
     FM010600 13005KT P6SM SKC=



000
FTUS43 KARX 311503 AAA
TAFLSE
TAF AMD
KLSE 311503Z 3115/0112 VRB03KT 1/2SM FG BKN002
     FM311530 30005KT P6SM SKC
     FM311800 30013G20KT P6SM SKC
     FM010000 VRB03KT P6SM SKC
     FM010600 13005KT P6SM SKC=



000
FTUS43 KARX 311503 AAA
TAFLSE
TAF AMD
KLSE 311503Z 3115/0112 VRB03KT 1/2SM FG BKN002
     FM311530 30005KT P6SM SKC
     FM311800 30013G20KT P6SM SKC
     FM010000 VRB03KT P6SM SKC
     FM010600 13005KT P6SM SKC=



000
FTUS43 KARX 311130
TAFRST
TAF
KRST 311130Z 3112/0112 28008KT P6SM SKC
      TEMPO 3112/3114 3SM BR
     FM311800 31014G22KT P6SM SKC
     FM010000 31006KT P6SM SKC
     FM010600 15008KT P6SM SKC=



000
FTUS43 KARX 311130
TAFLSE
TAF
KLSE 311130Z 3112/0112 VRB03KT 4SM BR SKC
      TEMPO 3112/3114 1/4SM FG OVC003
     FM311500 26005KT P6SM SKC
     FM311800 30013G20KT P6SM SKC
     FM010000 VRB03KT P6SM SKC
     FM010600 13005KT P6SM SKC=



000
FTUS43 KARX 311130
TAFLSE
TAF
KLSE 311130Z 3112/0112 VRB03KT 4SM BR SKC
      TEMPO 3112/3114 1/4SM FG OVC003
     FM311500 26005KT P6SM SKC
     FM311800 30013G20KT P6SM SKC
     FM010000 VRB03KT P6SM SKC
     FM010600 13005KT P6SM SKC=



000
FTUS43 KARX 311130
TAFRST
TAF
KRST 311130Z 3112/0112 28008KT P6SM SKC
      TEMPO 3112/3114 3SM BR
     FM311800 31014G22KT P6SM SKC
     FM010000 31006KT P6SM SKC
     FM010600 15008KT P6SM SKC=



000
FTUS43 KARX 311045 AAB
TAFLSE
TAF AMD
KLSE 311045Z 3111/0106 VRB03KT 4SM BR SKC
      TEMPO 3111/3114 1/2SM FG OVC002
     FM311400 28010KT P6SM SKC
     FM311800 31014G20KT P6SM SKC
     FM312300 32006KT P6SM SKC
     FM010300 VRB03KT P6SM SKC=



000
FTUS43 KARX 311045 AAB
TAFLSE
TAF AMD
KLSE 311045Z 3111/0106 VRB03KT 4SM BR SKC
      TEMPO 3111/3114 1/2SM FG OVC002
     FM311400 28010KT P6SM SKC
     FM311800 31014G20KT P6SM SKC
     FM312300 32006KT P6SM SKC
     FM010300 VRB03KT P6SM SKC=



000
FTUS43 KARX 311045 AAB
TAFLSE
TAF AMD
KLSE 311045Z 3111/0106 VRB03KT 4SM BR SKC
      TEMPO 3111/3114 1/2SM FG OVC002
     FM311400 28010KT P6SM SKC
     FM311800 31014G20KT P6SM SKC
     FM312300 32006KT P6SM SKC
     FM010300 VRB03KT P6SM SKC=



000
FTUS43 KARX 311045 AAB
TAFLSE
TAF AMD
KLSE 311045Z 3111/0106 VRB03KT 4SM BR SKC
      TEMPO 3111/3114 1/2SM FG OVC002
     FM311400 28010KT P6SM SKC
     FM311800 31014G20KT P6SM SKC
     FM312300 32006KT P6SM SKC
     FM010300 VRB03KT P6SM SKC=



000
FTUS43 KARX 310922 AAA
TAFLSE
TAF AMD
KLSE 310922Z 3109/0106 VRB03KT 4SM BR SKC
      TEMPO 3110/3114 1/2SM FG
     FM311400 28010KT P6SM SKC
     FM311800 31014G20KT P6SM SKC
     FM312300 32006KT P6SM SKC
     FM010300 VRB03KT P6SM SKC=



000
FTUS43 KARX 310922 AAA
TAFLSE
TAF AMD
KLSE 310922Z 3109/0106 VRB03KT 4SM BR SKC
      TEMPO 3110/3114 1/2SM FG
     FM311400 28010KT P6SM SKC
     FM311800 31014G20KT P6SM SKC
     FM312300 32006KT P6SM SKC
     FM010300 VRB03KT P6SM SKC=



000
FTUS43 KARX 310520
TAFRST
TAF
KRST 310520Z 3106/0106 02010KT P6SM SKC
     FM310800 30008KT P6SM SKC
     FM311800 31016G22KT P6SM SKC
     FM312300 32006KT P6SM SKC
     FM010300 VRB04KT P6SM SKC=



000
FTUS43 KARX 310520
TAFLSE
TAF
KLSE 310520Z 3106/0106 03004KT P6SM SKC
     FM311400 28010KT P6SM SKC
     FM311800 31014G20KT P6SM SKC
     FM312300 32006KT P6SM SKC
     FM010300 VRB03KT P6SM SKC=



000
FTUS43 KARX 310520
TAFRST
TAF
KRST 310520Z 3106/0106 02010KT P6SM SKC
     FM310800 30008KT P6SM SKC
     FM311800 31016G22KT P6SM SKC
     FM312300 32006KT P6SM SKC
     FM010300 VRB04KT P6SM SKC=



000
FTUS43 KARX 310520
TAFLSE
TAF
KLSE 310520Z 3106/0106 03004KT P6SM SKC
     FM311400 28010KT P6SM SKC
     FM311800 31014G20KT P6SM SKC
     FM312300 32006KT P6SM SKC
     FM010300 VRB03KT P6SM SKC=



000
FTUS43 KARX 310520
TAFRST
TAF
KRST 310520Z 3106/0106 02010KT P6SM SKC
     FM310800 30008KT P6SM SKC
     FM311800 31016G22KT P6SM SKC
     FM312300 32006KT P6SM SKC
     FM010300 VRB04KT P6SM SKC=



000
FTUS43 KARX 310520
TAFLSE
TAF
KLSE 310520Z 3106/0106 03004KT P6SM SKC
     FM311400 28010KT P6SM SKC
     FM311800 31014G20KT P6SM SKC
     FM312300 32006KT P6SM SKC
     FM010300 VRB03KT P6SM SKC=



000
FTUS43 KARX 310520
TAFRST
TAF
KRST 310520Z 3106/0106 02010KT P6SM SKC
     FM310800 30008KT P6SM SKC
     FM311800 31016G22KT P6SM SKC
     FM312300 32006KT P6SM SKC
     FM010300 VRB04KT P6SM SKC=



000
FTUS43 KARX 310520
TAFLSE
TAF
KLSE 310520Z 3106/0106 03004KT P6SM SKC
     FM311400 28010KT P6SM SKC
     FM311800 31014G20KT P6SM SKC
     FM312300 32006KT P6SM SKC
     FM010300 VRB03KT P6SM SKC=



000
FTUS43 KARX 302320
TAFLSE
TAF
KLSE 302320Z 3100/3124 13006KT P6SM SCT120
     FM310300 04005KT P6SM SKC
     FM310700 VRB03KT P6SM SKC
     FM311400 28010KT P6SM SKC
     FM311900 31014G20KT P6SM SKC=



000
FTUS43 KARX 302320
TAFRST
TAF
KRST 302320Z 3100/3124 13007KT P6SM SKC
     FM310300 33008KT P6SM SKC
     FM311400 31012KT P6SM SKC
     FM311800 31016G22KT P6SM SKC=



000
FTUS43 KARX 302320
TAFLSE
TAF
KLSE 302320Z 3100/3124 13006KT P6SM SCT120
     FM310300 04005KT P6SM SKC
     FM310700 VRB03KT P6SM SKC
     FM311400 28010KT P6SM SKC
     FM311900 31014G20KT P6SM SKC=



000
FTUS43 KARX 302320
TAFLSE
TAF
KLSE 302320Z 3100/3124 13006KT P6SM SCT120
     FM310300 04005KT P6SM SKC
     FM310700 VRB03KT P6SM SKC
     FM311400 28010KT P6SM SKC
     FM311900 31014G20KT P6SM SKC=



000
FTUS43 KARX 302320
TAFRST
TAF
KRST 302320Z 3100/3124 13007KT P6SM SKC
     FM310300 33008KT P6SM SKC
     FM311400 31012KT P6SM SKC
     FM311800 31016G22KT P6SM SKC=



000
FTUS43 KARX 302320
TAFRST
TAF
KRST 302320Z 3100/3124 13007KT P6SM SKC
     FM310300 33008KT P6SM SKC
     FM311400 31012KT P6SM SKC
     FM311800 31016G22KT P6SM SKC=



000
FTUS43 KARX 302320
TAFLSE
TAF
KLSE 302320Z 3100/3124 13006KT P6SM SCT120
     FM310300 04005KT P6SM SKC
     FM310700 VRB03KT P6SM SKC
     FM311400 28010KT P6SM SKC
     FM311900 31014G20KT P6SM SKC=



000
FTUS43 KARX 302320
TAFRST
TAF
KRST 302320Z 3100/3124 13007KT P6SM SKC
     FM310300 33008KT P6SM SKC
     FM311400 31012KT P6SM SKC
     FM311800 31016G22KT P6SM SKC=



000
FTUS43 KARX 301728
TAFLSE
TAF
KLSE 301728Z 3018/3118 VRB03KT P6SM BKN070
     FM302100 17006KT P6SM OVC100
     FM310500 01003KT P6SM SKC
     FM311400 28008KT P6SM SKC=



000
FTUS43 KARX 301728
TAFRST
TAF
KRST 301728Z 3018/3118 VRB03KT P6SM BKN090
     FM301900 22010KT P6SM BKN090
     FM310200 31008KT P6SM SKC=



000
FTUS43 KARX 301728
TAFRST
TAF
KRST 301728Z 3018/3118 VRB03KT P6SM BKN090
     FM301900 22010KT P6SM BKN090
     FM310200 31008KT P6SM SKC=



000
FTUS43 KARX 301728
TAFLSE
TAF
KLSE 301728Z 3018/3118 VRB03KT P6SM BKN070
     FM302100 17006KT P6SM OVC100
     FM310500 01003KT P6SM SKC
     FM311400 28008KT P6SM SKC=



000
FTUS43 KARX 301130
TAFRST
TAF
KRST 301130Z 3012/3112 25008KT P6SM SCT250
     FM301600 21010KT P6SM BKN090
     FM310200 30015KT P6SM SKC=



000
FTUS43 KARX 301130
TAFLSE
TAF
KLSE 301130Z 3012/3112 22005KT P6SM SCT250
     FM301700 19006KT P6SM BKN100
     FM310400 30010KT P6SM SKC=



000
FTUS43 KARX 301130
TAFLSE
TAF
KLSE 301130Z 3012/3112 22005KT P6SM SCT250
     FM301700 19006KT P6SM BKN100
     FM310400 30010KT P6SM SKC=



000
FTUS43 KARX 301130
TAFRST
TAF
KRST 301130Z 3012/3112 25008KT P6SM SCT250
     FM301600 21010KT P6SM BKN090
     FM310200 30015KT P6SM SKC=



000
FTUS43 KARX 301130
TAFLSE
TAF
KLSE 301130Z 3012/3112 22005KT P6SM SCT250
     FM301700 19006KT P6SM BKN100
     FM310400 30010KT P6SM SKC=



000
FTUS43 KARX 301130
TAFRST
TAF
KRST 301130Z 3012/3112 25008KT P6SM SCT250
     FM301600 21010KT P6SM BKN090
     FM310200 30015KT P6SM SKC=



000
FTUS43 KARX 300520
TAFRST
TAF
KRST 300520Z 3006/3106 28010KT P6SM SKC
     FM301000 25007KT P6SM BKN200
     FM301500 23010KT P6SM BKN060
     FM310100 30012KT P6SM SKC=



000
FTUS43 KARX 300520
TAFRST
TAF
KRST 300520Z 3006/3106 28010KT P6SM SKC
     FM301000 25007KT P6SM BKN200
     FM301500 23010KT P6SM BKN060
     FM310100 30012KT P6SM SKC=



000
FTUS43 KARX 300520
TAFRST
TAF
KRST 300520Z 3006/3106 28010KT P6SM SKC
     FM301000 25007KT P6SM BKN200
     FM301500 23010KT P6SM BKN060
     FM310100 30012KT P6SM SKC=



000
FTUS43 KARX 300520
TAFLSE
TAF
KLSE 300520Z 3006/3106 29008KT P6SM SKC
     FM301000 24006KT P6SM SKC
     FM301400 21005KT P6SM BKN200
     FM301700 17004KT P6SM BKN070
     FM310200 27007KT P6SM SKC=



000
FTUS43 KARX 300520
TAFLSE
TAF
KLSE 300520Z 3006/3106 29008KT P6SM SKC
     FM301000 24006KT P6SM SKC
     FM301400 21005KT P6SM BKN200
     FM301700 17004KT P6SM BKN070
     FM310200 27007KT P6SM SKC=



000
FTUS43 KARX 300520
TAFLSE
TAF
KLSE 300520Z 3006/3106 29008KT P6SM SKC
     FM301000 24006KT P6SM SKC
     FM301400 21005KT P6SM BKN200
     FM301700 17004KT P6SM BKN070
     FM310200 27007KT P6SM SKC=



000
FTUS43 KARX 300102 AAA
TAFLSE
TAF AMD
KLSE 300102Z 3001/3024 31014G22KT P6SM SKC
     FM300300 29012KT P6SM SKC
     FM301000 24006KT P6SM SKC
     FM301400 19006KT P6SM BKN200
     FM301700 17004KT P6SM BKN070=



000
FTUS43 KARX 300102 AAA
TAFLSE
TAF AMD
KLSE 300102Z 3001/3024 31014G22KT P6SM SKC
     FM300300 29012KT P6SM SKC
     FM301000 24006KT P6SM SKC
     FM301400 19006KT P6SM BKN200
     FM301700 17004KT P6SM BKN070=



000
FTUS43 KARX 300102 AAA
TAFLSE
TAF AMD
KLSE 300102Z 3001/3024 31014G22KT P6SM SKC
     FM300300 29012KT P6SM SKC
     FM301000 24006KT P6SM SKC
     FM301400 19006KT P6SM BKN200
     FM301700 17004KT P6SM BKN070=



000
FTUS43 KARX 300102 AAA
TAFLSE
TAF AMD
KLSE 300102Z 3001/3024 31014G22KT P6SM SKC
     FM300300 29012KT P6SM SKC
     FM301000 24006KT P6SM SKC
     FM301400 19006KT P6SM BKN200
     FM301700 17004KT P6SM BKN070=



000
FTUS43 KARX 292320
TAFRST
TAF
KRST 292320Z 3000/3024 31018G25KT P6SM SKC
     FM300200 29012KT P6SM SKC
     FM301000 25007KT P6SM BKN200
     FM301500 23010KT P6SM BKN060=



000
FTUS43 KARX 292320
TAFLSE
TAF
KLSE 292320Z 3000/3024 29010KT P6SM SKC
     FM301000 24006KT P6SM SKC
     FM301400 19006KT P6SM BKN200
     FM301700 17004KT P6SM BKN070=



000
FTUS43 KARX 292320
TAFLSE
TAF
KLSE 292320Z 3000/3024 29010KT P6SM SKC
     FM301000 24006KT P6SM SKC
     FM301400 19006KT P6SM BKN200
     FM301700 17004KT P6SM BKN070=



000
FTUS43 KARX 292320
TAFRST
TAF
KRST 292320Z 3000/3024 31018G25KT P6SM SKC
     FM300200 29012KT P6SM SKC
     FM301000 25007KT P6SM BKN200
     FM301500 23010KT P6SM BKN060=



000
FTUS43 KARX 292320
TAFRST
TAF
KRST 292320Z 3000/3024 31018G25KT P6SM SKC
     FM300200 29012KT P6SM SKC
     FM301000 25007KT P6SM BKN200
     FM301500 23010KT P6SM BKN060=



000
FTUS43 KARX 292320
TAFLSE
TAF
KLSE 292320Z 3000/3024 29010KT P6SM SKC
     FM301000 24006KT P6SM SKC
     FM301400 19006KT P6SM BKN200
     FM301700 17004KT P6SM BKN070=



000
FTUS43 KARX 292320
TAFRST
TAF
KRST 292320Z 3000/3024 31018G25KT P6SM SKC
     FM300200 29012KT P6SM SKC
     FM301000 25007KT P6SM BKN200
     FM301500 23010KT P6SM BKN060=



000
FTUS43 KARX 292320
TAFLSE
TAF
KLSE 292320Z 3000/3024 29010KT P6SM SKC
     FM301000 24006KT P6SM SKC
     FM301400 19006KT P6SM BKN200
     FM301700 17004KT P6SM BKN070=



000
FTUS43 KARX 292013 AAB
TAFLSE
TAF AMD
KLSE 292013Z 2920/3018 28027G37KT P6SM BKN025
     FM292130 29020G30KT P6SM SCT025
     FM300000 31012KT P6SM SKC
     FM300500 29005KT P6SM SKC
     FM301400 19006KT P6SM BKN200=



000
FTUS43 KARX 292013 AAB
TAFLSE
TAF AMD
KLSE 292013Z 2920/3018 28027G37KT P6SM BKN025
     FM292130 29020G30KT P6SM SCT025
     FM300000 31012KT P6SM SKC
     FM300500 29005KT P6SM SKC
     FM301400 19006KT P6SM BKN200=



000
FTUS43 KARX 292013 AAB
TAFLSE
TAF AMD
KLSE 292013Z 2920/3018 28027G37KT P6SM BKN025
     FM292130 29020G30KT P6SM SCT025
     FM300000 31012KT P6SM SKC
     FM300500 29005KT P6SM SKC
     FM301400 19006KT P6SM BKN200=



000
FTUS43 KARX 292013 AAB
TAFLSE
TAF AMD
KLSE 292013Z 2920/3018 28027G37KT P6SM BKN025
     FM292130 29020G30KT P6SM SCT025
     FM300000 31012KT P6SM SKC
     FM300500 29005KT P6SM SKC
     FM301400 19006KT P6SM BKN200=



000
FTUS43 KARX 292010 AAB
TAFRST
TAF AMD
KRST 292010Z 2920/3018 30028G39KT P6SM BKN015
     FM292100 30025G35KT P6SM SCT015
     FM300000 31016KT P6SM SKC
     FM300500 28009KT P6SM SKC
     FM301100 25007KT P6SM BKN200
     FM301400 23007KT P6SM BKN060=



000
FTUS43 KARX 292010 AAB
TAFRST
TAF AMD
KRST 292010Z 2920/3018 30028G39KT P6SM BKN015
     FM292100 30025G35KT P6SM SCT015
     FM300000 31016KT P6SM SKC
     FM300500 28009KT P6SM SKC
     FM301100 25007KT P6SM BKN200
     FM301400 23007KT P6SM BKN060=



000
FTUS43 KARX 291927 AAA
TAFRST
TAF AMD
KRST 291927Z 2919/3018 30028G39KT P6SM BKN015
     FM300000 31016KT P6SM SKC
     FM300500 28009KT P6SM SKC
     FM301100 25007KT P6SM BKN200
     FM301400 23007KT P6SM BKN060=



000
FTUS43 KARX 291927 AAA
TAFRST
TAF AMD
KRST 291927Z 2919/3018 30028G39KT P6SM BKN015
     FM300000 31016KT P6SM SKC
     FM300500 28009KT P6SM SKC
     FM301100 25007KT P6SM BKN200
     FM301400 23007KT P6SM BKN060=



000
FTUS43 KARX 291927 AAA
TAFRST
TAF AMD
KRST 291927Z 2919/3018 30028G39KT P6SM BKN015
     FM300000 31016KT P6SM SKC
     FM300500 28009KT P6SM SKC
     FM301100 25007KT P6SM BKN200
     FM301400 23007KT P6SM BKN060=



000
FTUS43 KARX 291925 AAA
TAFLSE
TAF AMD
KLSE 291925Z 2919/3018 28027G37KT P6SM BKN025
     FM300000 31012KT P6SM BKN025
     FM300200 30012KT P6SM SKC
     FM300500 29005KT P6SM SKC
     FM301400 19006KT P6SM BKN200=



000
FTUS43 KARX 291925 AAA
TAFLSE
TAF AMD
KLSE 291925Z 2919/3018 28027G37KT P6SM BKN025
     FM300000 31012KT P6SM BKN025
     FM300200 30012KT P6SM SKC
     FM300500 29005KT P6SM SKC
     FM301400 19006KT P6SM BKN200=



000
FTUS43 KARX 291732
TAFLSE
TAF
KLSE 291732Z 2918/3018 20015G25KT P6SM BKN015
     FM291900 23020G30KT P6SM BKN015
     FM292000 28023G35KT P6SM BKN020
     FM300000 31012KT P6SM BKN025
     FM300200 30012KT P6SM SKC
     FM300500 29005KT P6SM SKC
     FM301400 19006KT P6SM BKN200=



000
FTUS43 KARX 291732
TAFRST
TAF
KRST 291732Z 2918/3018 27028G39KT P6SM BKN025
     FM292000 30028G39KT P6SM BKN025
     FM300000 31016KT P6SM SKC
     FM300500 28009KT P6SM SKC
     FM301100 25007KT P6SM BKN200
     FM301400 23007KT P6SM BKN060=



000
FTUS43 KARX 291732
TAFRST
TAF
KRST 291732Z 2918/3018 27028G39KT P6SM BKN025
     FM292000 30028G39KT P6SM BKN025
     FM300000 31016KT P6SM SKC
     FM300500 28009KT P6SM SKC
     FM301100 25007KT P6SM BKN200
     FM301400 23007KT P6SM BKN060=



000
FTUS43 KARX 291732
TAFLSE
TAF
KLSE 291732Z 2918/3018 20015G25KT P6SM BKN015
     FM291900 23020G30KT P6SM BKN015
     FM292000 28023G35KT P6SM BKN020
     FM300000 31012KT P6SM BKN025
     FM300200 30012KT P6SM SKC
     FM300500 29005KT P6SM SKC
     FM301400 19006KT P6SM BKN200=



000
FTUS43 KARX 291732
TAFLSE
TAF
KLSE 291732Z 2918/3018 20015G25KT P6SM BKN015
     FM291900 23020G30KT P6SM BKN015
     FM292000 28023G35KT P6SM BKN020
     FM300000 31012KT P6SM BKN025
     FM300200 30012KT P6SM SKC
     FM300500 29005KT P6SM SKC
     FM301400 19006KT P6SM BKN200=



000
FTUS43 KARX 291732
TAFRST
TAF
KRST 291732Z 2918/3018 27028G39KT P6SM BKN025
     FM292000 30028G39KT P6SM BKN025
     FM300000 31016KT P6SM SKC
     FM300500 28009KT P6SM SKC
     FM301100 25007KT P6SM BKN200
     FM301400 23007KT P6SM BKN060=



000
FTUS43 KARX 291607 AAC
TAFLSE
TAF AMD
KLSE 291607Z 2916/3012 21017G26KT P6SM OVC015
     FM291800 29020G30KT P6SM BKN035
     FM300100 30015G24KT P6SM SCT040
     FM300500 29005KT P6SM SKC=



000
FTUS43 KARX 291607 AAC
TAFLSE
TAF AMD
KLSE 291607Z 2916/3012 21017G26KT P6SM OVC015
     FM291800 29020G30KT P6SM BKN035
     FM300100 30015G24KT P6SM SCT040
     FM300500 29005KT P6SM SKC=



000
FTUS43 KARX 291301 AAB
TAFLSE
TAF AMD
KLSE 291301Z 2913/3012 19019G30KT P6SM BKN050
     FM291400 21017G26KT P6SM BKN025
     FM291800 29020G30KT P6SM BKN035
     FM300100 30015G24KT P6SM SCT040
     FM300500 29005KT P6SM SKC=



000
FTUS43 KARX 291301 AAB
TAFLSE
TAF AMD
KLSE 291301Z 2913/3012 19019G30KT P6SM BKN050
     FM291400 21017G26KT P6SM BKN025
     FM291800 29020G30KT P6SM BKN035
     FM300100 30015G24KT P6SM SCT040
     FM300500 29005KT P6SM SKC=



000
FTUS43 KARX 291301 AAB
TAFLSE
TAF AMD
KLSE 291301Z 2913/3012 19019G30KT P6SM BKN050
     FM291400 21017G26KT P6SM BKN025
     FM291800 29020G30KT P6SM BKN035
     FM300100 30015G24KT P6SM SCT040
     FM300500 29005KT P6SM SKC=



000
FTUS43 KARX 291244 AAA
TAFRST
TAF AMD
KRST 291244Z 2913/3012 20025G32KT P6SM BKN035
     FM291800 30028G39KT P6SM BKN030
     FM300000 31015G22KT P6SM SCT035
     FM300500 28007KT P6SM SKC=



000
FTUS43 KARX 291244 AAA
TAFRST
TAF AMD
KRST 291244Z 2913/3012 20025G32KT P6SM BKN035
     FM291800 30028G39KT P6SM BKN030
     FM300000 31015G22KT P6SM SCT035
     FM300500 28007KT P6SM SKC=



000
FTUS43 KARX 291244 AAA
TAFRST
TAF AMD
KRST 291244Z 2913/3012 20025G32KT P6SM BKN035
     FM291800 30028G39KT P6SM BKN030
     FM300000 31015G22KT P6SM SCT035
     FM300500 28007KT P6SM SKC=



000
FTUS43 KARX 291244 AAA
TAFRST
TAF AMD
KRST 291244Z 2913/3012 20025G32KT P6SM BKN035
     FM291800 30028G39KT P6SM BKN030
     FM300000 31015G22KT P6SM SCT035
     FM300500 28007KT P6SM SKC=



000
FTUS43 KARX 291219 AAA
TAFLSE
TAF AMD
KLSE 291219Z 2912/3012 19015G25KT P6SM -FZRA BKN070 WS015/19050KT
     FM291400 21017G26KT P6SM BKN025
     FM291800 29020G30KT P6SM BKN035
     FM300100 30015G24KT P6SM SCT040
     FM300500 29005KT P6SM SKC=



000
FTUS43 KARX 291219 AAA
TAFLSE
TAF AMD
KLSE 291219Z 2912/3012 19015G25KT P6SM -FZRA BKN070 WS015/19050KT
     FM291400 21017G26KT P6SM BKN025
     FM291800 29020G30KT P6SM BKN035
     FM300100 30015G24KT P6SM SCT040
     FM300500 29005KT P6SM SKC=



000
FTUS43 KARX 291219 AAA
TAFLSE
TAF AMD
KLSE 291219Z 2912/3012 19015G25KT P6SM -FZRA BKN070 WS015/19050KT
     FM291400 21017G26KT P6SM BKN025
     FM291800 29020G30KT P6SM BKN035
     FM300100 30015G24KT P6SM SCT040
     FM300500 29005KT P6SM SKC=



000
FTUS43 KARX 291219 AAA
TAFLSE
TAF AMD
KLSE 291219Z 2912/3012 19015G25KT P6SM -FZRA BKN070 WS015/19050KT
     FM291400 21017G26KT P6SM BKN025
     FM291800 29020G30KT P6SM BKN035
     FM300100 30015G24KT P6SM SCT040
     FM300500 29005KT P6SM SKC=



000
FTUS43 KARX 291130
TAFLSE
TAF
KLSE 291130Z 2912/3012 19015G25KT P6SM -RA BKN035 WS015/19050KT
     FM291400 21017G26KT P6SM BKN025
     FM291800 29020G30KT P6SM BKN035
     FM300100 30015G24KT P6SM SCT040
     FM300500 29005KT P6SM SKC=



000
FTUS43 KARX 291130
TAFRST
TAF
KRST 291130Z 2912/3012 18020G30KT 5SM -FZRA BKN070 WS015/22050KT
     FM291300 23025G32KT P6SM BKN020
     FM291800 30028G39KT P6SM BKN030
     FM300000 31015G22KT P6SM SCT035
     FM300500 28007KT P6SM SKC=



000
FTUS43 KARX 291130
TAFRST
TAF
KRST 291130Z 2912/3012 18020G30KT 5SM -FZRA BKN070 WS015/22050KT
     FM291300 23025G32KT P6SM BKN020
     FM291800 30028G39KT P6SM BKN030
     FM300000 31015G22KT P6SM SCT035
     FM300500 28007KT P6SM SKC=



000
FTUS43 KARX 291130
TAFRST
TAF
KRST 291130Z 2912/3012 18020G30KT 5SM -FZRA BKN070 WS015/22050KT
     FM291300 23025G32KT P6SM BKN020
     FM291800 30028G39KT P6SM BKN030
     FM300000 31015G22KT P6SM SCT035
     FM300500 28007KT P6SM SKC=



000
FTUS43 KARX 291130
TAFLSE
TAF
KLSE 291130Z 2912/3012 19015G25KT P6SM -RA BKN035 WS015/19050KT
     FM291400 21017G26KT P6SM BKN025
     FM291800 29020G30KT P6SM BKN035
     FM300100 30015G24KT P6SM SCT040
     FM300500 29005KT P6SM SKC=



000
FTUS43 KARX 291130
TAFLSE
TAF
KLSE 291130Z 2912/3012 19015G25KT P6SM -RA BKN035 WS015/19050KT
     FM291400 21017G26KT P6SM BKN025
     FM291800 29020G30KT P6SM BKN035
     FM300100 30015G24KT P6SM SCT040
     FM300500 29005KT P6SM SKC=



000
FTUS43 KARX 291130
TAFRST
TAF
KRST 291130Z 2912/3012 18020G30KT 5SM -FZRA BKN070 WS015/22050KT
     FM291300 23025G32KT P6SM BKN020
     FM291800 30028G39KT P6SM BKN030
     FM300000 31015G22KT P6SM SCT035
     FM300500 28007KT P6SM SKC=



000
FTUS43 KARX 291130
TAFLSE
TAF
KLSE 291130Z 2912/3012 19015G25KT P6SM -RA BKN035 WS015/19050KT
     FM291400 21017G26KT P6SM BKN025
     FM291800 29020G30KT P6SM BKN035
     FM300100 30015G24KT P6SM SCT040
     FM300500 29005KT P6SM SKC=



000
FTUS43 KARX 290952 AAA
TAFRST
TAF AMD
KRST 290952Z 2910/3006 18020G30KT 5SM -FZRA BKN070 WS015/22050KT
     FM291200 23025G32KT P6SM BKN020
     FM291800 30028G38KT P6SM BKN030
     FM300000 31015G22KT P6SM SCT035=



000
FTUS43 KARX 290952 AAA
TAFRST
TAF AMD
KRST 290952Z 2910/3006 18020G30KT 5SM -FZRA BKN070 WS015/22050KT
     FM291200 23025G32KT P6SM BKN020
     FM291800 30028G38KT P6SM BKN030
     FM300000 31015G22KT P6SM SCT035=



000
FTUS43 KARX 290520
TAFRST
TAF
KRST 290520Z 2906/3006 18020KT P6SM SCT150 WS015/20050KT
     FM291000 19024G30KT 5SM -RA BKN030 WS015/20055KT
     FM291300 23025G32KT P6SM BKN020
     FM291800 30028G38KT P6SM BKN030
     FM300000 31015G22KT P6SM SCT035=



000
FTUS43 KARX 290520
TAFLSE
TAF
KLSE 290520Z 2906/3006 17014KT P6SM SCT150 WS015/19045KT
     FM291100 18018KT P6SM -RA BKN035 WS015/19050KT
     FM291400 21017G26KT P6SM BKN025
     FM291800 29020G30KT P6SM BKN035
     FM300100 30015G24KT P6SM SCT040=



000
FTUS43 KARX 290520
TAFRST
TAF
KRST 290520Z 2906/3006 18020KT P6SM SCT150 WS015/20050KT
     FM291000 19024G30KT 5SM -RA BKN030 WS015/20055KT
     FM291300 23025G32KT P6SM BKN020
     FM291800 30028G38KT P6SM BKN030
     FM300000 31015G22KT P6SM SCT035=



000
FTUS43 KARX 290520
TAFLSE
TAF
KLSE 290520Z 2906/3006 17014KT P6SM SCT150 WS015/19045KT
     FM291100 18018KT P6SM -RA BKN035 WS015/19050KT
     FM291400 21017G26KT P6SM BKN025
     FM291800 29020G30KT P6SM BKN035
     FM300100 30015G24KT P6SM SCT040=



000
FTUS43 KARX 290520
TAFLSE
TAF
KLSE 290520Z 2906/3006 17014KT P6SM SCT150 WS015/19045KT
     FM291100 18018KT P6SM -RA BKN035 WS015/19050KT
     FM291400 21017G26KT P6SM BKN025
     FM291800 29020G30KT P6SM BKN035
     FM300100 30015G24KT P6SM SCT040=



000
FTUS43 KARX 290520
TAFRST
TAF
KRST 290520Z 2906/3006 18020KT P6SM SCT150 WS015/20050KT
     FM291000 19024G30KT 5SM -RA BKN030 WS015/20055KT
     FM291300 23025G32KT P6SM BKN020
     FM291800 30028G38KT P6SM BKN030
     FM300000 31015G22KT P6SM SCT035=



000
FTUS43 KARX 290520
TAFRST
TAF
KRST 290520Z 2906/3006 18020KT P6SM SCT150 WS015/20050KT
     FM291000 19024G30KT 5SM -RA BKN030 WS015/20055KT
     FM291300 23025G32KT P6SM BKN020
     FM291800 30028G38KT P6SM BKN030
     FM300000 31015G22KT P6SM SCT035=



000
FTUS43 KARX 290520
TAFLSE
TAF
KLSE 290520Z 2906/3006 17014KT P6SM SCT150 WS015/19045KT
     FM291100 18018KT P6SM -RA BKN035 WS015/19050KT
     FM291400 21017G26KT P6SM BKN025
     FM291800 29020G30KT P6SM BKN035
     FM300100 30015G24KT P6SM SCT040=



000
FTUS43 KARX 282325
TAFRST
TAF
KRST 282325Z 2900/2924 16016KT P6SM SKC
     FM290500 18020KT P6SM SCT100 WS020/20055KT
     FM291000 19022G30KT 3SM RA BKN012
     FM291300 23025G34KT P6SM BKN010
     FM291800 30028G38KT P6SM BKN025=



000
FTUS43 KARX 282325
TAFLSE
TAF
KLSE 282325Z 2900/2924 18010KT P6SM SKC
     FM290600 17014KT P6SM BKN150 WS015/19045KT
     FM291100 18018KT 4SM RA BKN025
     FM291400 20017G26KT P6SM BKN020
     FM291800 28020G30KT P6SM BKN035=



000
FTUS43 KARX 282325
TAFRST
TAF
KRST 282325Z 2900/2924 16016KT P6SM SKC
     FM290500 18020KT P6SM SCT100 WS020/20055KT
     FM291000 19022G30KT 3SM RA BKN012
     FM291300 23025G34KT P6SM BKN010
     FM291800 30028G38KT P6SM BKN025=



000
FTUS43 KARX 282325
TAFLSE
TAF
KLSE 282325Z 2900/2924 18010KT P6SM SKC
     FM290600 17014KT P6SM BKN150 WS015/19045KT
     FM291100 18018KT 4SM RA BKN025
     FM291400 20017G26KT P6SM BKN020
     FM291800 28020G30KT P6SM BKN035=



000
FTUS43 KARX 281731
TAFLSE
TAF
KLSE 281731Z 2818/2918 15009KT P6SM SKC
     FM290500 18013KT P6SM BKN080 WS015/19045KT
     FM291200 20015KT 4SM RA BKN025
     FM291600 24014KT P6SM BKN020=



000
FTUS43 KARX 281731
TAFRST
TAF
KRST 281731Z 2818/2918 17010G18KT P6SM SKC
     FM290400 18018KT P6SM SCT100 WS020/20055KT
     FM291000 19020G28KT 3SM RA BKN012
     FM291400 24017G25KT P6SM BKN010=



000
FTUS43 KARX 281731
TAFRST
TAF
KRST 281731Z 2818/2918 17010G18KT P6SM SKC
     FM290400 18018KT P6SM SCT100 WS020/20055KT
     FM291000 19020G28KT 3SM RA BKN012
     FM291400 24017G25KT P6SM BKN010=



000
FTUS43 KARX 281731
TAFLSE
TAF
KLSE 281731Z 2818/2918 15009KT P6SM SKC
     FM290500 18013KT P6SM BKN080 WS015/19045KT
     FM291200 20015KT 4SM RA BKN025
     FM291600 24014KT P6SM BKN020=



000
FTUS43 KARX 281731
TAFRST
TAF
KRST 281731Z 2818/2918 17010G18KT P6SM SKC
     FM290400 18018KT P6SM SCT100 WS020/20055KT
     FM291000 19020G28KT 3SM RA BKN012
     FM291400 24017G25KT P6SM BKN010=



000
FTUS43 KARX 281731
TAFRST
TAF
KRST 281731Z 2818/2918 17010G18KT P6SM SKC
     FM290400 18018KT P6SM SCT100 WS020/20055KT
     FM291000 19020G28KT 3SM RA BKN012
     FM291400 24017G25KT P6SM BKN010=



000
FTUS43 KARX 281731
TAFLSE
TAF
KLSE 281731Z 2818/2918 15009KT P6SM SKC
     FM290500 18013KT P6SM BKN080 WS015/19045KT
     FM291200 20015KT 4SM RA BKN025
     FM291600 24014KT P6SM BKN020=



    US Dept of Commerce
    National Oceanic and Atmospheric Administration
    National Weather Service
    1325 East West Highway
    Silver Spring, MD 20910
    Page Author: NWS Internet Services Team
Disclaimer
Information Quality
Credits
Glossary
Privacy Policy
Freedom of Information Act (FOIA)
About Us
Career Opportunities